Southwest Washington Regional Airport Kelso US
ICAO: KKLS
IATA: KLS
Category: Medium
Scheduled Services: No

Elevation: 20 ft
TransAlt. 18000 ft.

Airport Communications:
AWOS 3:135.075
SEATTLE CNTR:124.2
SEATTLE RDO:122.25
CTAF/UNICOM:122.8

KKLS Zoom In..

Runways:

(A) RW 12 length 4391 ft width 100 ft
---- / hdg 123

(B) RW 30 length 4391 ft width 100 ft
---- / hdg 303

Location; KKLS
Day. 26 / Time. 03.56 Zulu
* Altimeter: 30.09
* Temperature: 13° c. 55.4°f.
* Wind from: 290° Speed 05 kn with Gusts up to 14 kn.
Dewpoint: 07° c.
Visibility: 10 Statute Miles.
Clouds: Clear (automated report).

KKLS 260356Z AUTO 29005G14KT 10SM CLR 13/07 A3009 RMK AO2 SLP195 T01330067


Wind From 290°
Speed 05 kn.

 
 
jpsmedia.com for Web Design SOUNDCLOUD worldairports.se 2018   terms of use